createdAt,value
2019-01-20T00:00:43.432Z,420.20
2019-01-20T00:03:47.112Z,439.00
2019-01-20T00:06:50.802Z,417.70
2019-01-20T00:09:54.507Z,398.33
2019-01-20T00:12:58.232Z,393.43
2019-01-20T00:16:01.993Z,401.67
2019-01-20T00:19:05.654Z,393.30
2019-01-20T00:22:09.338Z,387.97
2019-01-20T00:25:13.098Z,363.43
2019-01-20T00:28:16.693Z,404.27
2019-01-20T00:31:20.398Z,400.10
2019-01-20T00:34:24.117Z,419.07
2019-01-20T00:37:27.955Z,420.60
2019-01-20T00:40:31.663Z,404.93
2019-01-20T00:43:35.315Z,412.10
2019-01-20T00:46:39.048Z,415.63
2019-01-20T00:49:42.725Z,415.87
2019-01-20T00:52:46.426Z,405.23
2019-01-20T00:55:50.057Z,425.37
2019-01-20T00:58:53.762Z,430.80
2019-01-20T01:01:57.637Z,435.03
2019-01-20T01:05:01.306Z,414.30
2019-01-20T01:08:05.048Z,425.13
2019-01-20T01:11:08.772Z,400.83
2019-01-20T01:14:12.472Z,404.87
2019-01-20T01:17:16.140Z,399.80
2019-01-20T01:20:20.208Z,391.73
2019-01-20T01:23:23.883Z,386.13
2019-01-20T01:26:27.573Z,418.80
2019-01-20T01:29:31.243Z,403.70
2019-01-20T01:32:34.943Z,406.00
2019-01-20T01:35:38.667Z,371.00
2019-01-20T01:38:42.443Z,390.30
2019-01-20T01:41:46.150Z,388.30
2019-01-20T01:44:49.836Z,371.63
2019-01-20T01:47:53.512Z,397.57
2019-01-20T01:50:57.195Z,358.50
2019-01-20T01:54:00.863Z,368.43
2019-01-20T01:57:04.636Z,379.03
2019-01-20T02:00:19.583Z,368.03
2019-01-20T02:03:23.288Z,387.80
2019-01-20T02:06:26.953Z,395.03
2019-01-20T02:09:30.652Z,366.40
2019-01-20T02:12:34.285Z,345.17
2019-01-20T02:15:38.002Z,355.17
2019-01-20T02:18:41.670Z,367.30
2019-01-20T02:21:45.345Z,400.87
2019-01-20T02:24:48.995Z,379.30
2019-01-20T02:27:54.392Z,374.23
2019-01-20T02:30:58.133Z,362.53
2019-01-20T02:34:01.820Z,354.97
2019-01-20T02:37:05.503Z,371.60
2019-01-20T02:40:12.177Z,366.87
2019-01-20T02:43:15.859Z,331.10
2019-01-20T02:46:19.548Z,343.50
2019-01-20T02:49:23.237Z,334.10
2019-01-20T02:52:26.922Z,334.03
2019-01-20T02:55:30.603Z,353.47
2019-01-20T02:58:34.283Z,331.87
2019-01-20T03:01:38.052Z,301.43
2019-01-20T03:04:41.725Z,304.23
2019-01-20T03:07:45.376Z,275.67
2019-01-20T03:10:49.073Z,313.57
2019-01-20T03:13:52.747Z,318.33
2019-01-20T03:16:56.443Z,295.00
2019-01-20T03:20:00.284Z,282.27
2019-01-20T03:23:03.996Z,250.60
2019-01-20T03:26:07.705Z,247.33
2019-01-20T03:29:11.380Z,243.80
2019-01-20T03:32:15.069Z,220.80
2019-01-20T03:35:21.517Z,220.00
2019-01-20T03:38:25.219Z,249.80
2019-01-20T03:41:28.892Z,217.43
2019-01-20T03:44:32.615Z,223.90
2019-01-20T03:47:36.772Z,241.40
2019-01-20T03:50:40.469Z,263.27
2019-01-20T03:53:44.172Z,259.80
2019-01-20T03:56:47.827Z,244.60
2019-01-20T03:59:51.517Z,244.90
2019-01-20T04:02:56.762Z,267.30
2019-01-20T04:06:00.458Z,250.43
2019-01-20T04:09:07.057Z,281.37
2019-01-20T04:12:10.728Z,248.20
2019-01-20T04:15:15.285Z,254.17
2019-01-20T04:18:18.943Z,253.13
2019-01-20T04:21:22.656Z,260.83
2019-01-20T04:24:26.346Z,249.67
2019-01-20T04:27:30.014Z,247.77
2019-01-20T04:30:33.683Z,231.53
2019-01-20T04:33:37.363Z,228.10
2019-01-20T04:36:41.000Z,247.10
2019-01-20T04:39:44.675Z,224.47
2019-01-20T04:42:48.328Z,250.13
2019-01-20T04:45:52.024Z,219.97
2019-01-20T04:48:55.694Z,208.23
2019-01-20T04:51:59.382Z,213.13
2019-01-20T04:55:03.092Z,212.50
2019-01-20T04:58:06.941Z,205.23
2019-01-20T05:01:10.636Z,231.60
2019-01-20T05:04:14.296Z,219.50
2019-01-20T05:07:17.963Z,209.93
2019-01-20T05:10:21.632Z,236.77
2019-01-20T05:13:25.322Z,259.17
2019-01-20T05:16:28.958Z,240.80
2019-01-20T05:19:32.683Z,232.20
2019-01-20T05:22:36.401Z,252.47
2019-01-20T05:25:40.103Z,235.63
2019-01-20T05:28:43.811Z,247.90
2019-01-20T05:31:47.467Z,253.43
2019-01-20T05:34:51.132Z,258.03
2019-01-20T05:37:54.792Z,256.77
2019-01-20T05:40:58.471Z,261.30
2019-01-20T05:44:02.240Z,241.50
2019-01-20T05:47:05.922Z,235.47
2019-01-20T05:50:11.943Z,257.23
2019-01-20T05:53:15.617Z,263.80
2019-01-20T05:56:19.312Z,280.20
2019-01-20T05:59:22.968Z,277.83
2019-01-20T06:02:26.645Z,256.73
2019-01-20T06:05:30.322Z,285.07
2019-01-20T06:08:34.002Z,255.83
2019-01-20T06:11:37.680Z,278.30
2019-01-20T06:14:41.345Z,283.73
2019-01-20T06:17:45.058Z,265.20
2019-01-20T06:20:48.776Z,258.70
2019-01-20T06:23:52.528Z,234.30
2019-01-20T06:26:56.192Z,233.97
2019-01-20T06:29:59.888Z,247.27
2019-01-20T06:33:03.532Z,253.50
2019-01-20T06:36:07.244Z,240.20
2019-01-20T06:39:10.882Z,245.33
2019-01-20T06:42:14.581Z,233.57
2019-01-20T06:45:18.294Z,252.00
2019-01-20T06:48:22.002Z,258.63
2019-01-20T06:51:25.675Z,254.47
2019-01-20T06:54:29.370Z,245.00
2019-01-20T06:57:33.073Z,240.30
2019-01-20T07:00:36.744Z,246.73
2019-01-20T07:03:40.442Z,243.37
2019-01-20T07:06:44.092Z,260.10
2019-01-20T07:09:47.784Z,238.87
2019-01-20T07:12:51.468Z,243.33
2019-01-20T07:15:55.152Z,218.70
2019-01-20T07:18:58.812Z,240.60
2019-01-20T07:22:02.540Z,210.83
2019-01-20T07:25:07.745Z,221.97
2019-01-20T07:28:11.412Z,229.53
2019-01-20T07:31:15.103Z,229.50
2019-01-20T07:34:18.769Z,235.20
2019-01-20T07:37:22.465Z,219.70
2019-01-20T07:40:26.128Z,218.43
2019-01-20T07:43:29.831Z,210.37
2019-01-20T07:46:33.487Z,226.03
2019-01-20T07:49:37.148Z,216.37
2019-01-20T07:52:40.802Z,211.67
2019-01-20T07:55:44.496Z,234.57
2019-01-20T07:58:48.140Z,228.17
2019-01-20T08:01:51.847Z,166.27
2019-01-20T08:04:55.565Z,236.97
2019-01-20T08:07:59.229Z,200.20
2019-01-20T08:11:02.940Z,212.80
2019-01-20T08:14:06.602Z,237.67
2019-01-20T08:17:11.356Z,233.50
2019-01-20T08:20:19.891Z,223.33
2019-01-20T08:23:23.593Z,210.60
2019-01-20T08:26:27.298Z,243.50
2019-01-20T08:29:30.968Z,234.40
2019-01-20T08:32:34.685Z,237.20
2019-01-20T08:35:38.366Z,241.90
2019-01-20T08:38:42.084Z,246.93
2019-01-20T08:41:45.686Z,221.83
2019-01-20T08:44:49.375Z,223.27
2019-01-20T08:47:54.535Z,224.07
2019-01-20T08:50:58.355Z,238.77
2019-01-20T08:54:02.043Z,244.33
2019-01-20T08:57:05.755Z,228.67
2019-01-20T09:00:14.975Z,235.37
2019-01-20T09:03:18.655Z,233.67
2019-01-20T09:06:22.336Z,217.27
2019-01-20T09:09:26.001Z,256.53
2019-01-20T09:12:30.508Z,220.27
2019-01-20T09:15:34.167Z,215.27
2019-01-20T09:18:40.115Z,254.70
2019-01-20T09:21:43.775Z,252.57
2019-01-20T09:24:47.505Z,216.17
2019-01-20T09:27:51.223Z,235.23
2019-01-20T09:30:54.884Z,238.47
2019-01-20T09:33:58.551Z,232.20
2019-01-20T09:37:02.298Z,232.20
2019-01-20T09:40:08.611Z,214.03
2019-01-20T09:43:12.282Z,239.47
2019-01-20T09:46:16.394Z,256.07
2019-01-20T09:49:20.227Z,224.10
2019-01-20T09:52:23.924Z,194.00
2019-01-20T09:55:27.620Z,223.73
2019-01-20T09:58:31.283Z,231.07
2019-01-20T10:01:34.964Z,212.37
2019-01-20T10:04:38.616Z,209.00
2019-01-20T10:07:42.276Z,198.40
2019-01-20T10:10:45.942Z,222.90
2019-01-20T10:13:54.769Z,212.77
2019-01-20T10:16:54.976Z,215.60
2019-01-20T10:19:58.667Z,216.73
2019-01-20T10:23:02.394Z,214.30
2019-01-20T10:26:06.069Z,214.60
2019-01-20T10:29:09.720Z,211.33
2019-01-20T10:32:13.407Z,209.43
2019-01-20T10:35:17.787Z,187.37
2019-01-20T10:38:21.443Z,214.97
2019-01-20T10:41:25.180Z,215.03
2019-01-20T10:44:28.793Z,198.90
2019-01-20T10:47:32.502Z,207.90
2019-01-20T10:50:36.165Z,201.80
2019-01-20T10:53:39.875Z,188.47
2019-01-20T10:56:43.578Z,198.63
2019-01-20T10:59:47.251Z,216.43
2019-01-20T11:02:50.932Z,178.47
2019-01-20T11:05:54.602Z,206.20
2019-01-20T11:08:58.323Z,180.50
2019-01-20T11:12:01.980Z,197.67
2019-01-20T11:15:08.900Z,217.70
2019-01-20T11:18:12.528Z,198.97
2019-01-20T11:21:16.203Z,196.70
2019-01-20T11:24:19.940Z,184.13
2019-01-20T11:27:23.636Z,180.90
2019-01-20T11:30:27.318Z,201.60
2019-01-20T11:33:31.028Z,185.03
2019-01-20T11:36:34.733Z,192.77
2019-01-20T11:39:38.461Z,192.60
2019-01-20T11:42:42.266Z,168.73
2019-01-20T11:45:46.023Z,179.97
2019-01-20T11:48:49.723Z,156.63
2019-01-20T11:51:53.373Z,172.53
2019-01-20T11:55:00.787Z,171.53
2019-01-20T11:58:04.591Z,165.40
2019-01-20T12:01:08.251Z,164.87
2019-01-20T12:04:11.947Z,170.87
2019-01-20T12:07:15.628Z,166.67
2019-01-20T12:10:19.318Z,207.83
2019-01-20T12:13:24.570Z,190.57
2019-01-20T12:16:28.234Z,195.87
2019-01-20T12:19:31.878Z,195.37
2019-01-20T12:22:35.620Z,195.63
2019-01-20T12:29:11.380Z,201.13
2019-01-20T12:32:15.085Z,197.40
2019-01-20T12:35:18.781Z,216.17
2019-01-20T12:38:22.472Z,200.17
2019-01-20T12:41:26.193Z,186.93
2019-01-20T12:44:31.543Z,181.70
2019-01-20T12:47:35.238Z,183.23
2019-01-20T12:50:38.903Z,178.60
2019-01-20T12:53:42.604Z,166.67
2019-01-20T12:56:47.346Z,166.70
2019-01-20T12:59:51.368Z,174.23
2019-01-20T13:02:55.102Z,171.67
2019-01-20T13:05:58.763Z,174.93
2019-01-20T13:09:02.469Z,156.03
2019-01-20T13:12:06.136Z,145.07
2019-01-20T13:15:12.240Z,153.90
2019-01-20T13:18:15.884Z,165.67
2019-01-20T13:21:19.621Z,139.30
2019-01-20T13:24:23.302Z,121.73
2019-01-20T13:27:27.017Z,119.27
2019-01-20T13:30:30.727Z,120.40
2019-01-20T13:33:34.416Z,144.23
2019-01-20T13:36:38.102Z,152.97
2019-01-20T13:39:41.808Z,237.17
2019-01-20T13:42:45.538Z,171.13
2019-01-20T13:45:49.233Z,131.93
2019-01-20T13:48:52.934Z,147.73
2019-01-20T13:51:56.619Z,145.00
2019-01-20T13:55:00.323Z,142.57
2019-01-20T13:58:03.993Z,153.30
2019-01-20T14:01:07.696Z,159.30
2019-01-20T14:04:11.400Z,167.93
2019-01-20T14:07:15.062Z,164.33
2019-01-20T14:10:23.443Z,173.07
2019-01-20T14:13:27.127Z,167.00
2019-01-20T14:16:30.812Z,170.80
2019-01-20T14:19:34.494Z,170.17
2019-01-20T14:22:38.168Z,166.27
2019-01-20T14:25:41.872Z,157.90
2019-01-20T14:28:45.544Z,160.93
2019-01-20T14:31:49.280Z,180.40
2019-01-20T14:34:52.943Z,179.83
2019-01-20T14:37:56.698Z,176.83
2019-01-20T14:41:00.343Z,188.80
2019-01-20T14:44:04.112Z,198.33
2019-01-20T14:47:07.772Z,207.57
2019-01-20T14:50:14.653Z,197.73
2019-01-20T14:53:18.388Z,200.10
2019-01-20T14:56:22.046Z,204.37
2019-01-20T14:59:25.734Z,202.53
2019-01-20T15:02:29.400Z,224.27
2019-01-20T15:05:33.095Z,220.20
2019-01-20T15:08:36.783Z,218.90
2019-01-20T15:11:40.443Z,247.57
2019-01-20T15:14:44.132Z,228.73
2019-01-20T15:17:47.818Z,230.10
2019-01-20T15:20:51.482Z,221.30
2019-01-20T15:23:55.168Z,201.43
2019-01-20T15:26:58.837Z,206.80
2019-01-20T15:30:02.486Z,206.30
2019-01-20T15:33:06.381Z,198.00
2019-01-20T15:36:10.058Z,202.50
2019-01-20T15:39:13.758Z,212.27
2019-01-20T15:42:17.432Z,191.40
2019-01-20T15:45:22.515Z,243.17
2019-01-20T15:48:26.184Z,222.23
2019-01-20T15:51:29.893Z,211.27
2019-01-20T15:54:33.584Z,225.47
2019-01-20T15:57:37.233Z,219.07
2019-01-20T16:00:40.954Z,216.03
2019-01-20T16:03:44.716Z,223.23
2019-01-20T16:06:48.408Z,219.47
2019-01-20T16:09:52.066Z,221.43
2019-01-20T16:12:55.743Z,215.77
2019-01-20T16:15:59.406Z,241.00
2019-01-20T16:19:03.109Z,235.93
2019-01-20T16:22:06.834Z,229.47
2019-01-20T16:25:19.073Z,232.87
2019-01-20T16:28:22.789Z,230.63
2019-01-20T16:31:26.437Z,237.23
2019-01-20T16:34:30.139Z,217.83
2019-01-20T16:37:33.822Z,221.93
2019-01-20T16:40:37.521Z,224.20
2019-01-20T16:43:41.190Z,240.43
2019-01-20T16:46:45.487Z,246.23
2019-01-20T16:49:49.136Z,254.37
2019-01-20T16:52:54.659Z,271.73
2019-01-20T16:55:58.500Z,288.23
2019-01-20T16:59:02.257Z,276.93
2019-01-20T17:02:06.036Z,277.33
2019-01-20T17:05:11.256Z,271.90
2019-01-20T17:08:16.022Z,260.83
2019-01-20T17:11:19.744Z,292.20
2019-01-20T17:14:23.404Z,333.23
2019-01-20T17:17:27.132Z,281.13
2019-01-20T17:20:30.815Z,292.07
2019-01-20T17:23:34.495Z,304.80
2019-01-20T17:26:38.195Z,299.37
2019-01-20T17:29:41.891Z,308.53
2019-01-20T17:32:45.552Z,291.17
2019-01-20T17:35:49.251Z,282.33
2019-01-20T17:38:54.069Z,287.47
2019-01-20T17:41:57.728Z,292.97
2019-01-20T17:45:01.436Z,270.57
2019-01-20T17:48:05.073Z,279.03
2019-01-20T17:51:11.573Z,245.90
2019-01-20T17:54:15.260Z,255.37
2019-01-20T17:57:18.952Z,272.23
2019-01-20T18:00:26.631Z,451.27
2019-01-20T18:03:30.335Z,506.60
2019-01-20T18:06:34.096Z,372.27
2019-01-20T18:09:39.368Z,316.10
2019-01-20T18:12:43.082Z,359.40
2019-01-20T18:15:54.061Z,348.70
2019-01-20T18:18:52.140Z,294.70
2019-01-20T18:21:55.823Z,312.50
2019-01-20T18:24:59.522Z,299.20
2019-01-20T18:28:03.202Z,329.63
2019-01-20T18:31:06.903Z,329.27
2019-01-20T18:34:10.713Z,357.27
2019-01-20T18:37:14.405Z,317.27
2019-01-20T18:40:20.541Z,341.07
2019-01-20T18:43:24.362Z,360.93
2019-01-20T18:46:28.003Z,332.10
2019-01-20T18:49:31.663Z,373.73
2019-01-20T18:52:35.380Z,357.37
2019-01-20T18:55:39.113Z,353.90
2019-01-20T18:58:42.802Z,387.07
2019-01-20T19:01:46.617Z,364.57
2019-01-20T19:04:50.262Z,383.43
2019-01-20T19:07:55.511Z,361.13
2019-01-20T19:10:59.483Z,351.67
2019-01-20T19:14:03.148Z,336.20
2019-01-20T19:17:06.844Z,365.33
2019-01-20T19:20:16.101Z,361.47
2019-01-20T19:23:19.825Z,343.77
2019-01-20T19:26:23.484Z,367.33
2019-01-20T19:29:27.214Z,370.20
2019-01-20T19:32:31.669Z,384.93
2019-01-20T19:35:35.383Z,355.07
2019-01-20T19:38:39.012Z,356.97
2019-01-20T19:41:42.744Z,369.60
2019-01-20T19:44:46.382Z,348.73
2019-01-20T19:47:50.076Z,325.50
2019-01-20T19:50:53.783Z,316.20
2019-01-20T19:53:57.495Z,302.27
2019-01-20T19:57:01.223Z,340.73
2019-01-20T20:00:08.253Z,354.53
2019-01-20T20:03:11.990Z,308.40
2019-01-20T20:06:15.653Z,319.20
2019-01-20T20:09:20.130Z,334.17
2019-01-20T20:12:23.797Z,326.60
2019-01-20T20:15:28.014Z,363.07
2019-01-20T20:18:31.704Z,353.43
2019-01-20T20:21:35.406Z,322.73
2019-01-20T20:24:39.082Z,303.50
2019-01-20T20:27:42.811Z,308.90
2019-01-20T20:30:46.636Z,316.13
2019-01-20T20:33:50.307Z,325.93
2019-01-20T20:36:55.435Z,336.53
2019-01-20T20:39:59.098Z,324.83
2019-01-20T20:43:02.765Z,327.47
2019-01-20T20:46:06.412Z,325.13
2019-01-20T20:49:10.096Z,365.70
2019-01-20T20:52:15.361Z,355.57
2019-01-20T20:55:20.876Z,348.60
2019-01-20T20:58:24.556Z,363.97
2019-01-20T21:01:28.243Z,355.63
2019-01-20T21:04:32.027Z,367.00
2019-01-20T21:07:35.733Z,364.60
2019-01-20T21:10:39.390Z,385.10
2019-01-20T21:13:43.136Z,432.50
2019-01-20T21:16:46.853Z,432.23
2019-01-20T21:19:51.626Z,368.67
2019-01-20T21:22:55.284Z,368.73
2019-01-20T21:25:58.978Z,401.17
2019-01-20T21:29:02.627Z,377.87
2019-01-20T21:32:06.319Z,364.47
2019-01-20T21:35:10.012Z,360.93
2019-01-20T21:38:13.687Z,345.33
2019-01-20T21:41:17.379Z,365.17
2019-01-20T21:44:21.073Z,354.63
2019-01-20T21:47:24.762Z,321.67
2019-01-20T21:50:30.470Z,332.50
2019-01-20T21:53:34.152Z,331.77
2019-01-20T21:56:37.855Z,311.47
2019-01-20T21:59:41.520Z,297.60
2019-01-20T22:02:45.209Z,298.60
2019-01-20T22:05:48.911Z,295.60
2019-01-20T22:08:52.660Z,293.43
2019-01-20T22:11:56.382Z,278.77
2019-01-20T22:15:00.091Z,303.07
2019-01-20T22:18:03.901Z,249.63
2019-01-20T22:21:07.613Z,271.40
2019-01-20T22:24:11.361Z,278.27
2019-01-20T22:27:15.038Z,281.03
2019-01-20T22:30:23.505Z,378.43
2019-01-20T22:33:27.223Z,356.67
2019-01-20T22:36:30.897Z,556.97
2019-01-20T22:39:34.592Z,475.50
2019-01-20T22:42:38.308Z,400.53
2019-01-20T22:45:41.996Z,337.70
2019-01-20T22:48:45.645Z,383.17
2019-01-20T22:51:49.328Z,435.57
2019-01-20T22:54:52.980Z,426.50
2019-01-20T22:57:56.677Z,425.47
2019-01-20T23:01:00.518Z,432.07
2019-01-20T23:04:04.255Z,409.53
2019-01-20T23:07:08.049Z,409.30
2019-01-20T23:10:11.724Z,412.80
2019-01-20T23:13:15.507Z,421.93
2019-01-20T23:16:19.175Z,428.13
2019-01-20T23:19:22.863Z,424.90
2019-01-20T23:22:26.575Z,427.43
2019-01-20T23:25:30.225Z,446.17
2019-01-20T23:28:33.964Z,418.50
2019-01-20T23:31:37.626Z,405.30
2019-01-20T23:34:41.327Z,348.03
2019-01-20T23:37:44.974Z,416.13
2019-01-20T23:40:48.687Z,383.70
2019-01-20T23:43:52.396Z,370.77
2019-01-20T23:46:56.163Z,373.20
2019-01-20T23:49:59.871Z,418.60
2019-01-20T23:53:03.519Z,352.67
2019-01-20T23:56:07.212Z,394.40
2019-01-20T23:59:10.864Z,342.57
